createdAt,value
2022-10-29T00:00:24.694Z,16.13
2022-10-29T00:02:51.816Z,8.10
2022-10-29T00:05:19.013Z,17.80
2022-10-29T00:07:46.149Z,14.73
2022-10-29T00:10:13.330Z,18.73
2022-10-29T00:12:40.473Z,20.57
2022-10-29T00:15:11.202Z,11.73
2022-10-29T00:17:38.317Z,13.80
2022-10-29T00:20:06.025Z,9.20
2022-10-29T00:22:33.155Z,14.00
2022-10-29T00:25:00.500Z,14.53
2022-10-29T00:27:27.724Z,15.50
2022-10-29T00:29:55.779Z,11.93
2022-10-29T00:32:23.119Z,13.80
2022-10-29T00:34:50.235Z,22.03
2022-10-29T00:37:17.326Z,16.70
2022-10-29T00:39:44.418Z,8.93
2022-10-29T00:42:16.267Z,19.93
2022-10-29T00:44:44.090Z,13.10
2022-10-29T00:47:27.775Z,16.77
2022-10-29T00:50:02.513Z,9.50
2022-10-29T00:52:32.523Z,15.30
2022-10-29T00:55:03.080Z,6.33
2022-10-29T00:57:48.795Z,10.53
2022-10-29T01:00:17.438Z,11.00
2022-10-29T01:02:45.900Z,9.70
2022-10-29T01:05:18.753Z,14.87
2022-10-29T01:07:46.526Z,13.60
2022-10-29T01:10:15.590Z,6.03
2022-10-29T01:13:14.627Z,12.50
2022-10-29T01:16:01.188Z,8.50
2022-10-29T01:18:44.302Z,9.40
2022-10-29T01:21:35.392Z,13.77
2022-10-29T01:24:26.929Z,16.10
2022-10-29T01:27:20.389Z,16.93
2022-10-29T01:30:02.234Z,8.93
2022-10-29T01:33:07.430Z,16.77
2022-10-29T01:35:55.953Z,7.10
2022-10-29T01:38:44.976Z,10.10
2022-10-29T01:41:27.532Z,8.13
2022-10-29T01:44:05.212Z,11.97
2022-10-29T01:46:56.410Z,11.00
2022-10-29T01:49:33.441Z,14.07
2022-10-29T01:52:03.895Z,7.90
2022-10-29T01:54:31.242Z,9.50
2022-10-29T01:57:00.139Z,11.13
2022-10-29T01:59:36.081Z,14.57
2022-10-29T02:02:48.125Z,12.63
2022-10-29T02:05:27.578Z,6.23
2022-10-29T02:08:05.080Z,6.87
2022-10-29T02:10:47.822Z,6.97
2022-10-29T02:13:17.590Z,5.73
2022-10-29T02:15:53.072Z,9.73
2022-10-29T02:18:20.582Z,9.27
2022-10-29T02:20:47.919Z,2.67
2022-10-29T02:23:16.583Z,4.87
2022-10-29T02:25:43.945Z,8.00
2022-10-29T02:28:11.200Z,7.97
2022-10-29T02:30:38.344Z,10.60
2022-10-29T02:33:05.468Z,8.83
2022-10-29T02:35:32.701Z,8.73
2022-10-29T02:37:59.790Z,12.97
2022-10-29T02:40:26.955Z,9.27
2022-10-29T02:42:54.778Z,5.73
2022-10-29T02:45:22.099Z,9.33
2022-10-29T02:47:49.184Z,9.40
2022-10-29T02:50:16.644Z,6.47
2022-10-29T02:52:43.761Z,11.13
2022-10-29T02:55:10.863Z,7.83
2022-10-29T02:57:37.993Z,9.70
2022-10-29T03:00:05.916Z,7.10
2022-10-29T03:02:33.131Z,5.20
2022-10-29T03:05:00.282Z,10.90
2022-10-29T03:07:27.424Z,5.17
2022-10-29T03:09:54.648Z,6.37
2022-10-29T03:12:21.817Z,3.13
2022-10-29T03:14:48.872Z,5.90
2022-10-29T03:17:15.952Z,4.40
2022-10-29T03:19:43.064Z,8.53
2022-10-29T03:22:10.113Z,3.93
2022-10-29T03:24:37.226Z,2.70
2022-10-29T03:27:04.407Z,8.13
2022-10-29T03:29:31.592Z,6.23
2022-10-29T03:31:58.738Z,6.00
2022-10-29T03:34:25.951Z,3.33
2022-10-29T03:36:53.033Z,6.73
2022-10-29T03:39:20.097Z,5.47
2022-10-29T03:41:47.224Z,5.37
2022-10-29T03:44:14.368Z,6.87
2022-10-29T03:46:41.491Z,3.93
2022-10-29T03:49:08.577Z,4.00
2022-10-29T03:51:35.657Z,2.60
2022-10-29T03:54:02.813Z,11.03
2022-10-29T03:56:29.893Z,5.73
2022-10-29T03:58:57.011Z,5.20
2022-10-29T04:01:24.442Z,5.77
2022-10-29T04:03:51.712Z,1.80
2022-10-29T04:06:18.830Z,4.30
2022-10-29T04:08:46.001Z,2.53
2022-10-29T04:11:14.073Z,5.03
2022-10-29T04:13:41.378Z,4.97
2022-10-29T04:16:08.635Z,4.80
2022-10-29T04:18:35.827Z,3.67
2022-10-29T04:29:25.203Z,4.03
2022-10-29T04:31:52.578Z,2.83
2022-10-29T04:34:19.879Z,4.40
2022-10-29T04:36:47.010Z,3.60
2022-10-29T04:39:15.423Z,3.63
2022-10-29T04:41:44.259Z,5.00
2022-10-29T04:44:11.317Z,2.83
2022-10-29T04:46:38.412Z,4.60
2022-10-29T04:49:05.566Z,4.10
2022-10-29T04:51:32.729Z,3.87
2022-10-29T04:54:02.917Z,3.73
2022-10-29T04:56:31.035Z,4.23
2022-10-29T04:58:58.106Z,6.20
2022-10-29T05:01:25.319Z,6.40
2022-10-29T05:03:55.619Z,5.73
2022-10-29T05:06:26.048Z,4.70
2022-10-29T05:08:53.274Z,4.80
2022-10-29T05:11:20.468Z,8.20
2022-10-29T05:13:47.589Z,8.20
2022-10-29T05:16:14.685Z,12.63
2022-10-29T05:18:41.858Z,6.47
2022-10-29T05:21:08.988Z,3.30
2022-10-29T05:23:37.451Z,6.07
2022-10-29T05:26:04.758Z,4.87
2022-10-29T05:28:31.836Z,3.43
2022-10-29T05:31:04.259Z,5.07
2022-10-29T05:33:34.190Z,3.30
2022-10-29T05:36:01.532Z,6.03
2022-10-29T05:38:28.774Z,3.57
2022-10-29T05:40:58.712Z,5.07
2022-10-29T05:43:26.047Z,10.20
2022-10-29T05:45:53.196Z,2.73
2022-10-29T05:48:20.412Z,5.30
2022-10-29T05:50:47.537Z,8.43
2022-10-29T05:53:15.429Z,5.97
2022-10-29T05:55:42.980Z,6.50
2022-10-29T05:58:12.533Z,8.17
2022-10-29T06:00:42.630Z,7.13
2022-10-29T06:03:16.766Z,12.10
2022-10-29T06:05:44.376Z,5.33
2022-10-29T06:08:11.583Z,2.30
2022-10-29T06:10:38.944Z,5.73
2022-10-29T06:13:20.778Z,3.53
2022-10-29T06:15:49.400Z,6.23
2022-10-29T06:18:16.959Z,2.73
2022-10-29T06:20:44.179Z,2.77
2022-10-29T06:23:11.901Z,5.43
2022-10-29T06:25:39.099Z,2.53
2022-10-29T06:28:09.299Z,4.27
2022-10-29T06:30:36.897Z,3.80
2022-10-29T06:33:05.363Z,3.57
2022-10-29T06:38:11.007Z,2.90
2022-10-29T06:40:39.861Z,5.77
2022-10-29T06:43:12.739Z,5.20
2022-10-29T06:45:40.239Z,4.40
2022-10-29T06:48:07.732Z,1.83
2022-10-29T06:50:34.941Z,3.10
2022-10-29T06:53:06.688Z,3.10
2022-10-29T06:55:35.663Z,8.10
2022-10-29T06:58:10.627Z,6.83
2022-10-29T07:00:38.101Z,4.27
2022-10-29T07:03:05.677Z,5.10
2022-10-29T07:05:33.395Z,4.40
2022-10-29T07:08:01.470Z,1.97
2022-10-29T07:10:30.951Z,2.13
2022-10-29T07:12:58.613Z,4.10
2022-10-29T07:15:28.038Z,3.70
2022-10-29T07:18:06.371Z,2.70
2022-10-29T07:20:36.956Z,3.70
2022-10-29T07:23:04.135Z,3.00
2022-10-29T07:25:32.319Z,2.20
2022-10-29T07:28:16.528Z,2.23
2022-10-29T07:30:44.570Z,2.20
2022-10-29T07:33:13.089Z,4.23
2022-10-29T07:35:40.483Z,2.80
2022-10-29T07:38:11.120Z,1.67
2022-10-29T07:40:39.927Z,6.00
2022-10-29T07:43:07.743Z,2.73
2022-10-29T07:45:34.875Z,3.20
2022-10-29T07:48:04.862Z,6.60
2022-10-29T07:50:32.494Z,5.60
2022-10-29T07:53:00.734Z,5.53
2022-10-29T07:58:07.212Z,8.50
2022-10-29T08:00:39.271Z,3.67
2022-10-29T08:03:07.260Z,2.60
2022-10-29T08:05:34.692Z,5.00
2022-10-29T08:08:02.251Z,5.17
2022-10-29T08:10:30.786Z,7.10
2022-10-29T08:13:00.908Z,3.53
2022-10-29T08:15:30.719Z,3.97
2022-10-29T08:17:58.357Z,6.63
2022-10-29T08:20:27.444Z,7.10
2022-10-29T08:22:55.156Z,8.17
2022-10-29T08:25:22.637Z,2.73
2022-10-29T08:28:00.888Z,9.07
2022-10-29T08:30:28.588Z,8.73
2022-10-29T08:32:56.080Z,9.33
2022-10-29T08:35:23.441Z,6.10
2022-10-29T08:37:50.594Z,2.43
2022-10-29T08:40:29.933Z,6.73
2022-10-29T08:43:24.160Z,5.50
2022-10-29T08:45:54.825Z,4.17
2022-10-29T08:48:33.854Z,5.87
2022-10-29T08:51:37.809Z,3.37
2022-10-29T08:56:58.877Z,4.93
2022-10-29T08:59:29.711Z,7.97
2022-10-29T09:01:57.099Z,9.83
2022-10-29T09:04:25.672Z,9.10
2022-10-29T09:07:07.765Z,3.87
2022-10-29T09:10:06.825Z,11.20
2022-10-29T09:13:11.211Z,8.07
2022-10-29T09:15:59.500Z,9.20
2022-10-29T09:18:49.796Z,8.33
2022-10-29T09:21:56.214Z,10.80
2022-10-29T09:24:41.605Z,7.73
2022-10-29T09:27:25.181Z,14.03
2022-10-29T09:29:58.155Z,10.17
2022-10-29T09:32:47.661Z,16.90
2022-10-29T09:35:18.539Z,11.87
2022-10-29T09:37:54.678Z,12.20
2022-10-29T09:40:34.480Z,9.20
2022-10-29T09:43:21.516Z,9.13
2022-10-29T09:45:58.214Z,8.20
2022-10-29T09:48:40.800Z,13.57
2022-10-29T09:51:29.196Z,9.97
2022-10-29T09:53:56.286Z,7.90
2022-10-29T09:56:24.359Z,8.47
2022-10-29T09:59:22.023Z,8.53
2022-10-29T10:01:49.806Z,4.50
2022-10-29T10:04:41.494Z,11.97
2022-10-29T10:07:11.723Z,7.33
2022-10-29T10:10:06.355Z,5.70
2022-10-29T10:12:50.904Z,12.43
2022-10-29T10:15:31.664Z,7.27
2022-10-29T10:18:01.706Z,4.20
2022-10-29T10:20:39.653Z,6.87
2022-10-29T10:23:29.487Z,4.83
2022-10-29T10:26:02.327Z,13.97
2022-10-29T10:28:37.012Z,7.87
2022-10-29T10:31:04.335Z,8.20
2022-10-29T10:33:34.874Z,6.20
2022-10-29T10:36:06.517Z,5.20
2022-10-29T10:38:50.082Z,9.50
2022-10-29T10:41:27.564Z,6.80
2022-10-29T10:44:02.501Z,6.87
2022-10-29T10:46:43.428Z,5.97
2022-10-29T10:49:25.892Z,10.50
2022-10-29T10:51:55.007Z,11.13
2022-10-29T10:54:42.103Z,4.90
2022-10-29T10:57:12.491Z,7.37
2022-10-29T10:59:57.049Z,9.23
2022-10-29T11:02:43.029Z,6.43
2022-10-29T11:05:33.610Z,7.67
2022-10-29T11:08:21.549Z,6.93
2022-10-29T11:10:52.236Z,7.00
2022-10-29T11:13:24.592Z,6.73
2022-10-29T11:16:13.820Z,11.00
2022-10-29T11:19:04.427Z,6.30
2022-10-29T11:21:36.881Z,9.00
2022-10-29T11:24:18.208Z,10.30
2022-10-29T11:26:51.692Z,9.07
2022-10-29T11:29:36.837Z,8.80
2022-10-29T11:32:15.889Z,8.40
2022-10-29T11:35:04.686Z,12.30
2022-10-29T11:37:50.400Z,14.07
2022-10-29T11:40:23.641Z,21.07
2022-10-29T11:42:51.015Z,19.10
2022-10-29T11:45:28.278Z,13.37
2022-10-29T11:47:55.796Z,15.47
2022-10-29T11:50:43.921Z,17.60
2022-10-29T11:53:17.087Z,20.43
2022-10-29T11:55:49.872Z,18.83
2022-10-29T11:58:23.603Z,22.90
2022-10-29T12:01:01.758Z,22.20
2022-10-29T12:03:31.686Z,19.37
2022-10-29T12:06:34.410Z,18.03
2022-10-29T12:09:30.314Z,23.17
2022-10-29T12:12:09.731Z,21.70
2022-10-29T12:15:19.093Z,20.90
2022-10-29T12:18:08.873Z,18.30
2022-10-29T12:20:54.269Z,18.10
2022-10-29T12:23:30.103Z,18.47
2022-10-29T12:26:11.347Z,15.57
2022-10-29T12:29:04.339Z,13.50
2022-10-29T12:31:42.569Z,14.87
2022-10-29T12:34:32.183Z,13.93
2022-10-29T12:37:18.229Z,14.40
2022-10-29T12:39:49.500Z,14.80
2022-10-29T12:42:26.290Z,14.80
2022-10-29T12:45:12.142Z,15.23
2022-10-29T12:47:49.299Z,14.23
2022-10-29T12:50:50.281Z,11.17
2022-10-29T12:53:33.039Z,15.13
2022-10-29T12:56:00.465Z,16.93
2022-10-29T12:58:50.119Z,17.07
2022-10-29T13:01:38.286Z,20.23
2022-10-29T13:04:27.535Z,17.10
2022-10-29T13:06:59.951Z,14.10
2022-10-29T13:09:28.315Z,15.50
2022-10-29T13:12:01.415Z,14.57
2022-10-29T13:14:46.564Z,15.17
2022-10-29T13:17:36.629Z,16.87
2022-10-29T13:20:21.665Z,16.43
2022-10-29T13:22:57.545Z,13.87
2022-10-29T13:25:28.432Z,116.37
2022-10-29T13:27:56.031Z,82.30
2022-10-29T13:30:29.730Z,75.73
2022-10-29T13:32:57.337Z,57.00
2022-10-29T13:35:27.711Z,54.47
2022-10-29T13:37:55.523Z,41.80
2022-10-29T13:40:22.542Z,49.43
2022-10-29T13:43:05.550Z,53.50
2022-10-29T13:45:35.083Z,28.30
2022-10-29T13:48:32.830Z,28.87
2022-10-29T13:51:04.367Z,24.43
2022-10-29T13:53:40.027Z,25.90
2022-10-29T13:56:17.296Z,25.37
2022-10-29T13:58:45.728Z,25.00
2022-10-29T14:01:17.782Z,23.03
2022-10-29T14:03:51.012Z,19.73
2022-10-29T14:06:36.516Z,16.77
2022-10-29T14:09:44.198Z,23.30
2022-10-29T14:12:17.439Z,20.37
2022-10-29T14:15:02.697Z,22.67
2022-10-29T14:17:30.628Z,19.17
2022-10-29T14:19:57.900Z,23.70
2022-10-29T14:22:39.183Z,24.07
2022-10-29T14:25:25.043Z,19.67
2022-10-29T14:28:19.006Z,22.50
2022-10-29T14:30:47.815Z,86.40
2022-10-29T14:33:22.218Z,40.50
2022-10-29T14:35:49.562Z,26.20
2022-10-29T14:38:17.695Z,22.53
2022-10-29T14:40:46.527Z,25.67
2022-10-29T14:43:27.448Z,21.10
2022-10-29T14:45:57.584Z,22.53
2022-10-29T14:48:24.897Z,23.47
2022-10-29T14:50:56.663Z,19.77
2022-10-29T14:53:28.114Z,18.60
2022-10-29T14:55:55.835Z,34.93
2022-10-29T14:58:31.140Z,24.90
2022-10-29T15:01:05.957Z,41.97
2022-10-29T15:03:35.329Z,24.20
2022-10-29T15:06:14.876Z,24.00
2022-10-29T15:08:47.063Z,23.77
2022-10-29T15:11:34.345Z,17.27
2022-10-29T15:14:24.057Z,19.77
2022-10-29T15:16:51.439Z,20.37
2022-10-29T15:19:19.027Z,23.53
2022-10-29T15:21:46.477Z,18.47
2022-10-29T15:24:20.720Z,21.80
2022-10-29T15:26:54.989Z,20.93
2022-10-29T15:29:34.017Z,16.43
2022-10-29T15:32:01.938Z,19.80
2022-10-29T15:34:36.219Z,15.27
2022-10-29T15:37:26.469Z,19.90
2022-10-29T15:39:59.390Z,18.60
2022-10-29T15:42:34.881Z,23.70
2022-10-29T15:45:08.147Z,18.40
2022-10-29T15:47:40.837Z,20.07
2022-10-29T15:50:12.150Z,21.03
2022-10-29T15:52:45.566Z,14.60
2022-10-29T15:55:26.751Z,20.17
2022-10-29T15:58:11.001Z,23.77
2022-10-29T16:00:38.439Z,18.07
2022-10-29T16:03:22.033Z,18.60
2022-10-29T16:05:54.202Z,17.17
2022-10-29T16:08:27.866Z,19.87
2022-10-29T16:10:56.038Z,19.27
2022-10-29T16:13:24.982Z,19.73
2022-10-29T16:15:52.320Z,21.27
2022-10-29T16:18:19.595Z,21.70
2022-10-29T16:20:48.177Z,26.73
2022-10-29T16:23:15.833Z,22.63
2022-10-29T16:25:43.694Z,21.93
2022-10-29T16:28:11.128Z,25.73
2022-10-29T16:33:09.483Z,21.37
2022-10-29T16:35:36.682Z,24.13
2022-10-29T16:38:03.780Z,20.20
2022-10-29T16:40:30.921Z,34.30
2022-10-29T16:42:58.787Z,19.73
2022-10-29T16:45:30.082Z,20.23
2022-10-29T16:47:57.848Z,25.03
2022-10-29T16:50:30.678Z,21.03
2022-10-29T16:53:02.853Z,20.00
2022-10-29T16:55:30.368Z,26.10
2022-10-29T16:57:58.041Z,25.00
2022-10-29T17:00:31.711Z,20.90
2022-10-29T17:03:04.982Z,19.70
2022-10-29T17:05:38.685Z,16.40
2022-10-29T17:08:06.391Z,20.57
2022-10-29T17:10:34.374Z,27.20
2022-10-29T17:13:01.622Z,26.67
2022-10-29T17:15:28.814Z,21.40
2022-10-29T17:17:56.323Z,24.27
2022-10-29T17:20:23.591Z,23.07
2022-10-29T17:22:52.453Z,26.77
2022-10-29T17:25:20.440Z,21.37
2022-10-29T17:27:47.648Z,20.60
2022-10-29T17:30:14.802Z,27.40
2022-10-29T17:32:41.958Z,30.13
2022-10-29T17:35:09.542Z,23.10
2022-10-29T17:37:36.681Z,21.43
2022-10-29T17:40:07.077Z,24.97
2022-10-29T17:42:35.749Z,21.27
2022-10-29T17:45:02.893Z,25.60
2022-10-29T17:47:30.403Z,17.73
2022-10-29T17:49:57.602Z,24.30
2022-10-29T17:52:24.728Z,20.07
2022-10-29T17:54:51.960Z,21.20
2022-10-29T17:57:19.158Z,21.00
2022-10-29T17:59:46.315Z,24.97
2022-10-29T18:02:13.509Z,21.97
2022-10-29T18:04:40.779Z,20.57
2022-10-29T18:07:07.882Z,21.00
2022-10-29T18:09:35.067Z,21.60
2022-10-29T18:12:02.237Z,19.27
2022-10-29T18:14:29.399Z,15.07
2022-10-29T18:16:56.574Z,19.40
2022-10-29T18:19:23.963Z,26.90
2022-10-29T18:21:51.081Z,17.10
2022-10-29T18:24:19.513Z,17.20
2022-10-29T18:26:50.339Z,18.47
2022-10-29T18:29:17.532Z,17.90
2022-10-29T18:31:45.912Z,17.73
2022-10-29T18:34:15.270Z,21.77
2022-10-29T18:36:43.298Z,18.83
2022-10-29T18:39:10.490Z,19.07
2022-10-29T18:41:37.706Z,18.10
2022-10-29T18:44:05.262Z,18.13
2022-10-29T18:46:32.553Z,16.13
2022-10-29T18:49:00.855Z,13.93
2022-10-29T18:51:30.442Z,14.20
2022-10-29T18:53:58.542Z,15.30
2022-10-29T18:56:27.296Z,20.63
2022-10-29T18:58:57.984Z,21.53
2022-10-29T19:01:27.567Z,16.20
2022-10-29T19:03:57.161Z,19.47
2022-10-29T19:06:26.295Z,16.77
2022-10-29T19:08:53.937Z,17.00
2022-10-29T19:11:23.956Z,15.67
2022-10-29T19:14:02.395Z,14.53
2022-10-29T19:16:31.018Z,15.50
2022-10-29T19:19:06.849Z,17.50
2022-10-29T19:21:35.720Z,21.50
2022-10-29T19:24:03.690Z,21.97
2022-10-29T19:26:33.681Z,18.23
2022-10-29T19:29:02.776Z,22.30
2022-10-29T19:31:33.769Z,18.10
2022-10-29T19:34:03.167Z,19.23
2022-10-29T19:36:30.572Z,19.00
2022-10-29T19:38:58.200Z,17.13
2022-10-29T19:41:25.373Z,15.93
2022-10-29T19:43:52.875Z,16.03
2022-10-29T19:46:24.737Z,15.73
2022-10-29T19:48:54.143Z,19.67
2022-10-29T19:51:22.222Z,17.80
2022-10-29T19:53:53.370Z,18.33
2022-10-29T19:56:22.110Z,21.57
2022-10-29T19:58:49.749Z,19.33
2022-10-29T20:01:18.215Z,22.03
2022-10-29T20:03:46.349Z,21.13
2022-10-29T20:06:14.511Z,25.13
2022-10-29T20:08:42.253Z,21.13
2022-10-29T20:11:09.567Z,20.63
2022-10-29T20:13:37.998Z,22.87
2022-10-29T20:16:14.149Z,21.60
2022-10-29T20:18:41.328Z,23.20
2022-10-29T20:21:08.604Z,20.17
2022-10-29T20:23:36.107Z,23.40
2022-10-29T20:26:03.432Z,17.20
2022-10-29T20:28:30.550Z,17.23
2022-10-29T20:31:19.393Z,23.13
2022-10-29T20:33:50.176Z,18.53
2022-10-29T20:36:17.484Z,17.67
2022-10-29T20:38:50.540Z,18.57
2022-10-29T20:41:18.333Z,16.73
2022-10-29T20:43:45.890Z,14.40
2022-10-29T20:46:13.200Z,20.07
2022-10-29T20:48:40.310Z,18.90
2022-10-29T20:51:07.687Z,18.87
2022-10-29T20:53:34.812Z,21.53
2022-10-29T20:56:03.764Z,17.97
2022-10-29T20:58:30.903Z,20.20
2022-10-29T21:01:12.825Z,20.00
2022-10-29T21:03:40.318Z,25.03
2022-10-29T21:06:17.046Z,22.57
2022-10-29T21:08:48.326Z,22.43
2022-10-29T21:11:16.536Z,22.20
2022-10-29T21:13:43.884Z,21.70
2022-10-29T21:16:24.355Z,24.60
2022-10-29T21:18:54.012Z,23.50
2022-10-29T21:21:22.322Z,27.67
2022-10-29T21:23:49.721Z,19.83
2022-10-29T21:26:22.967Z,23.50
2022-10-29T21:28:51.347Z,17.70
2022-10-29T21:31:19.636Z,24.97
2022-10-29T21:33:50.458Z,19.90
2022-10-29T21:36:17.565Z,18.83
2022-10-29T21:38:44.777Z,20.00
2022-10-29T21:41:11.995Z,23.87
2022-10-29T21:43:39.417Z,20.13
2022-10-29T21:46:07.225Z,16.67
2022-10-29T21:48:34.796Z,18.53
2022-10-29T21:51:05.139Z,16.67
2022-10-29T21:53:32.818Z,20.57
2022-10-29T21:56:03.217Z,17.60
2022-10-29T21:58:30.845Z,20.83
2022-10-29T22:01:06.819Z,20.37
2022-10-29T22:03:35.166Z,22.10
2022-10-29T22:06:12.215Z,16.10
2022-10-29T22:08:42.649Z,19.83
2022-10-29T22:11:10.942Z,17.63
2022-10-29T22:13:38.862Z,18.80
2022-10-29T22:16:07.315Z,16.73
2022-10-29T22:18:35.215Z,15.80
2022-10-29T22:21:15.334Z,21.47
2022-10-29T22:23:46.854Z,20.83
2022-10-29T22:26:16.130Z,15.47
2022-10-29T22:28:44.587Z,18.20
2022-10-29T22:31:11.844Z,18.20
2022-10-29T22:33:39.583Z,15.30
2022-10-29T22:36:09.933Z,20.07
2022-10-29T22:38:37.597Z,21.60
2022-10-29T22:41:12.904Z,25.83
2022-10-29T22:43:40.842Z,15.60
2022-10-29T22:46:09.454Z,19.43
2022-10-29T22:48:36.650Z,18.00
2022-10-29T22:51:09.798Z,17.47
2022-10-29T22:53:40.324Z,16.60
2022-10-29T22:56:07.706Z,21.97
2022-10-29T22:58:34.807Z,23.57
2022-10-29T23:01:07.399Z,18.60
2022-10-29T23:03:34.704Z,15.93
2022-10-29T23:06:04.092Z,16.63
2022-10-29T23:08:34.700Z,16.87
2022-10-29T23:11:16.716Z,20.00
2022-10-29T23:13:45.778Z,17.43
2022-10-29T23:16:13.324Z,22.20
2022-10-29T23:18:40.533Z,18.27
2022-10-29T23:21:08.552Z,17.30
2022-10-29T23:23:36.792Z,18.43
2022-10-29T23:26:04.387Z,20.90
2022-10-29T23:28:34.266Z,14.57
2022-10-29T23:31:03.796Z,16.53
2022-10-29T23:33:32.405Z,18.50
2022-10-29T23:36:07.340Z,17.37
2022-10-29T23:38:35.106Z,21.67
2022-10-29T23:41:02.949Z,17.70
2022-10-29T23:43:30.446Z,22.60
2022-10-29T23:45:57.839Z,19.67
2022-10-29T23:48:25.141Z,18.43
2022-10-29T23:50:52.578Z,21.07
2022-10-29T23:53:20.011Z,20.53
2022-10-29T23:55:47.159Z,19.70
2022-10-29T23:58:15.194Z,16.87
